»·PEaware :: N567B KNQX-MHLM

N567B :: KNQX-MHLM

FLIGHT INFORMATION

Flight Status: Arrived
Operator: Privately registered:
United States
More flights under this callsign
Pilot: Nigam P. (15980)
Aircraft: BEECH AIRCRAFT SUPER KING AIR 350
(B350)
More flights by this aircraft type
Origin: KNQX Key West NAS
United States
Destination: MHLM La Mesa Intl
Honduras
More flights between these airports :: More routes between these airports
Route: FIS G765 MAXIM KALNO GABIX GABIX1
File this flight plan on PilotEdge
Remarks:
Altitude:
(Current/Filed)
30,000ft
Speed:
(Current/Filed)
300kts
Departed: 30-Jul-20 12:19 PM
Arrived: 30-Jul-20 02:44 PM
Distance/Time
Traveled:
651nm/2:25
Distance/Time
To Go:
Arrived

Flight Plot

Page will automatically refresh every two minutes.


Map Options




Map Legend


Flown Route
Filed Route
Departure Airport
Arrival Airport
Navaid (VOR, NDB)
Fix

Horizontal Profiles

Position Reports

Time Latitude Longitude Heading Altitude Ground
Speed
30-Jul-20 12:17 24.499052 -81.875782 228 6665ft 235kts
30-Jul-20 12:18 24.457513 -81.931680 228 8468ft 236kts
30-Jul-20 12:19 24.415750 -81.987762 228 10267ft 238kts
30-Jul-20 12:20 24.374322 -82.043212 229 12043ft 238kts
30-Jul-20 12:21 24.332119 -82.099501 229 13840ft 240kts
30-Jul-20 12:22 24.289275 -82.156846 230 15643ft 244kts
30-Jul-20 12:23 24.247316 -82.211919 228 18325ft 221kts
30-Jul-20 12:24 24.209776 -82.256737 224 22043ft 179kts
30-Jul-20 12:25 24.175854 -82.297466 227 25138ft 182kts
30-Jul-20 12:26 24.142180 -82.342235 228 27891ft 197kts
30-Jul-20 12:27 24.100648 -82.402720 232 28075ft 285kts
30-Jul-20 12:28 24.048718 -82.474263 227 28062ft 308kts
30-Jul-20 12:29 23.988170 -82.538277 217 28055ft 297kts
30-Jul-20 12:30 23.921151 -82.589559 210 28051ft 291kts
30-Jul-20 12:31 23.852307 -82.634361 208 28048ft 288kts
30-Jul-20 12:32 23.782363 -82.677443 207 28045ft 287kts
30-Jul-20 12:33 23.712705 -82.719671 207 28041ft 286kts
30-Jul-20 12:34 23.643081 -82.761699 207 28038ft 286kts
30-Jul-20 12:35 23.573460 -82.803664 207 28035ft 285kts
30-Jul-20 12:36 23.503857 -82.845586 207 28033ft 285kts
30-Jul-20 12:37 23.434376 -82.887397 207 28031ft 285kts
30-Jul-20 12:38 23.364813 -82.929210 207 28030ft 285kts
30-Jul-20 12:39 23.295186 -82.971007 207 28029ft 285kts
30-Jul-20 12:40 23.225473 -83.012812 207 28029ft 285kts
30-Jul-20 12:41 23.155829 -83.054534 207 28028ft 285kts
30-Jul-20 12:42 23.086255 -83.096165 207 28028ft 285kts
30-Jul-20 12:43 23.016626 -83.137778 207 28027ft 285kts
30-Jul-20 12:44 22.947160 -83.179253 207 28023ft 285kts
30-Jul-20 12:45 22.877397 -83.220878 207 28020ft 285kts
30-Jul-20 12:46 22.807667 -83.262419 207 28025ft 285kts
30-Jul-20 12:47 22.737637 -83.304222 207 28025ft 289kts
30-Jul-20 12:48 22.666708 -83.346881 207 28023ft 293kts
30-Jul-20 12:49 22.595248 -83.389796 207 28019ft 294kts
30-Jul-20 12:50 22.523391 -83.432689 207 28019ft 295kts
30-Jul-20 12:51 22.451441 -83.475429 207 28018ft 295kts
30-Jul-20 12:52 22.379093 -83.518315 207 28019ft 300kts
30-Jul-20 12:53 22.305497 -83.562529 207 28019ft 305kts
30-Jul-20 12:54 22.231071 -83.607238 207 28018ft 307kts
30-Jul-20 12:55 22.159870 -83.648810 204 29375ft 270kts
30-Jul-20 12:56 22.092082 -83.685058 206 30021ft 285kts
30-Jul-20 12:57 22.020050 -83.728391 208 30020ft 304kts
30-Jul-20 12:58 21.945636 -83.774280 207 30019ft 311kts
30-Jul-20 12:59 21.869929 -83.820187 207 30019ft 313kts
30-Jul-20 13:00 21.793483 -83.865761 206 30019ft 314kts
30-Jul-20 13:01 21.716803 -83.910983 206 30020ft 314kts
30-Jul-20 13:02 21.640052 -83.955975 206 30020ft 314kts
30-Jul-20 13:03 21.563154 -84.000914 206 30017ft 314kts
30-Jul-20 13:04 21.486270 -84.045731 206 30017ft 314kts
30-Jul-20 13:05 21.409427 -84.090400 206 30017ft 313kts
30-Jul-20 13:06 21.332626 -84.134974 206 30017ft 313kts
30-Jul-20 13:07 21.256181 -84.179287 206 30017ft 312kts
30-Jul-20 13:08 21.179709 -84.223559 206 30016ft 312kts
30-Jul-20 13:09 21.103152 -84.267819 207 30017ft 312kts
30-Jul-20 13:10 21.026997 -84.311792 207 30010ft 311kts
30-Jul-20 13:11 20.950706 -84.355802 207 30008ft 311kts
30-Jul-20 13:13 20.874457 -84.399715 207 30009ft 310kts
30-Jul-20 13:14 20.798420 -84.443456 207 30009ft 310kts
30-Jul-20 13:15 20.722496 -84.487089 207 30009ft 309kts
30-Jul-20 13:16 20.646634 -84.530642 207 30009ft 309kts
30-Jul-20 13:17 20.571101 -84.573980 207 30004ft 309kts
30-Jul-20 13:18 20.495270 -84.617446 207 30002ft 308kts
30-Jul-20 13:19 20.419517 -84.660823 207 29990ft 308kts
30-Jul-20 13:20 20.343896 -84.704089 207 29989ft 308kts
30-Jul-20 13:21 20.268309 -84.747269 207 29990ft 308kts
30-Jul-20 13:22 20.192794 -84.790368 207 29990ft 308kts
30-Jul-20 13:23 20.117181 -84.833490 207 29990ft 308kts
30-Jul-20 13:24 20.041692 -84.876507 207 29991ft 308kts
30-Jul-20 13:25 19.966129 -84.919523 208 29991ft 307kts
30-Jul-20 13:26 19.891695 -84.961791 207 29987ft 307kts
30-Jul-20 13:27 19.815300 -85.005119 207 29988ft 307kts
30-Jul-20 13:28 19.739882 -85.047873 207 29988ft 307kts
30-Jul-20 13:29 19.664464 -85.090608 207 29988ft 307kts
30-Jul-20 13:30 19.588954 -85.133364 207 29989ft 307kts
30-Jul-20 13:30 19.526169 -85.168885 207 29989ft 307kts
30-Jul-20 13:31 19.450891 -85.211434 207 29989ft 307kts
30-Jul-20 13:33 19.362478 -85.261346 207 29990ft 307kts
30-Jul-20 13:33 19.299551 -85.296831 207 29987ft 307kts
30-Jul-20 13:34 19.223947 -85.339425 207 29987ft 308kts
30-Jul-20 13:35 19.148425 -85.381917 207 29987ft 308kts
30-Jul-20 13:36 19.072577 -85.424542 207 29987ft 308kts
30-Jul-20 13:37 18.997009 -85.466961 207 29986ft 308kts
30-Jul-20 13:38 18.921258 -85.509434 207 29985ft 308kts
30-Jul-20 13:39 18.845494 -85.551869 207 29984ft 308kts
30-Jul-20 13:40 18.769669 -85.594284 207 29984ft 308kts
30-Jul-20 13:41 18.693935 -85.636597 207 29984ft 308kts
30-Jul-20 13:42 18.618185 -85.678866 207 29983ft 308kts
30-Jul-20 13:43 18.542357 -85.721092 207 29983ft 308kts
30-Jul-20 13:44 18.466745 -85.763149 207 29983ft 308kts
30-Jul-20 13:45 18.390764 -85.805373 207 29983ft 308kts
30-Jul-20 13:46 18.314833 -85.847522 207 29982ft 308kts
30-Jul-20 13:47 18.238959 -85.889589 207 29980ft 308kts
30-Jul-20 13:48 18.163054 -85.931608 207 29981ft 308kts
30-Jul-20 13:49 18.087147 -85.973558 207 29981ft 308kts
30-Jul-20 13:50 18.011227 -86.015472 205 29982ft 308kts
30-Jul-20 13:51 17.935597 -86.057062 205 29982ft 307kts
30-Jul-20 13:52 17.859717 -86.098684 205 29983ft 307kts
30-Jul-20 13:53 17.783929 -86.140189 205 29984ft 307kts
30-Jul-20 13:54 17.708019 -86.181646 205 29984ft 307kts
30-Jul-20 13:55 17.632273 -86.222854 205 29985ft 307kts
30-Jul-20 13:56 17.556205 -86.264036 205 29985ft 307kts
30-Jul-20 13:57 17.487125 -86.301150 205 29984ft 307kts
30-Jul-20 13:58 17.410868 -86.341609 205 29984ft 307kts
30-Jul-20 13:59 17.334262 -86.381267 204 29985ft 307kts
30-Jul-20 14:00 17.256819 -86.418667 201 29986ft 306kts
30-Jul-20 14:01 17.191364 -86.475357 226 29987ft 309kts
30-Jul-20 14:02 17.133305 -86.541786 225 29985ft 309kts
30-Jul-20 14:03 17.073539 -86.606630 224 29972ft 309kts
30-Jul-20 14:04 17.012972 -86.670544 223 29973ft 309kts
30-Jul-20 14:05 16.952262 -86.733972 223 29973ft 309kts
30-Jul-20 14:06 16.891320 -86.797393 223 29973ft 308kts
30-Jul-20 14:07 16.830536 -86.860525 223 29973ft 308kts
30-Jul-20 14:08 16.769844 -86.923475 223 29972ft 308kts
30-Jul-20 14:09 16.708824 -86.986688 223 29969ft 308kts
30-Jul-20 14:10 16.647949 -87.049676 223 29966ft 308kts
30-Jul-20 14:11 16.587016 -87.112639 223 29962ft 308kts
30-Jul-20 14:12 16.526385 -87.175267 223 29532ft 321kts
30-Jul-20 14:13 16.461689 -87.244305 225 27880ft 337kts
30-Jul-20 14:14 16.396031 -87.313971 223 26276ft 334kts
30-Jul-20 14:15 16.330364 -87.381591 222 24677ft 329kts
30-Jul-20 14:16 16.265038 -87.447592 222 23084ft 325kts
30-Jul-20 14:17 16.201287 -87.511046 222 21524ft 320kts
30-Jul-20 14:18 16.137841 -87.575301 222 19943ft 317kts
30-Jul-20 14:19 16.074533 -87.638898 222 18345ft 316kts
30-Jul-20 14:20 16.011535 -87.701838 222 16604ft 315kts
30-Jul-20 14:21 15.947968 -87.764158 219 14637ft 308kts
30-Jul-20 14:22 15.884727 -87.823708 218 12628ft 308kts
30-Jul-20 14:23 15.822294 -87.871393 203 10835ft 298kts
30-Jul-20 14:24 15.742061 -87.865849 145 8718ft 281kts
30-Jul-20 14:25 15.668940 -87.845751 187 6744ft 283kts
30-Jul-20 14:26 15.597557 -87.872833 189 5668ft 251kts
30-Jul-20 14:27 15.530923 -87.890482 195 5723ft 248kts
30-Jul-20 14:28 15.480574 -87.905431 194 5462ft 245kts
30-Jul-20 14:29 15.415396 -87.925209 220 3939ft 254kts
30-Jul-20 14:30 15.351289 -87.941442 188 3036ft 232kts
30-Jul-20 14:31 15.321455 -87.902463 63 2999ft 209kts
30-Jul-20 14:32 15.370699 -87.904385 315 3003ft 216kts
30-Jul-20 14:33 15.421365 -87.929282 22 2989ft 205kts
30-Jul-20 14:34 15.471167 -87.911211 350 3007ft 211kts
30-Jul-20 14:35 15.522930 -87.892070 2 3003ft 204kts
30-Jul-20 14:36 15.577153 -87.875913 16 3009ft 206kts
30-Jul-20 14:37 15.613722 -87.864609 35 2519ft 203kts
30-Jul-20 14:38 15.602884 -87.824552 174 2495ft 192kts
30-Jul-20 14:39 15.550120 -87.836318 212 2134ft 211kts
30-Jul-20 14:40 15.511622 -87.873058 215 1281ft 161kts
30-Jul-20 14:41 15.480991 -87.898881 215 544ft 133kts
30-Jul-20 14:42 15.453605 -87.922618 217 87ft 96kts
30-Jul-20 14:43 15.446128 -87.930655 311 87ft 4kts
30-Jul-20 14:44 15.448947 -87.928907 326 87ft 9kts
30-Jul-20 14:45 15.448961 -87.929660 75 87ft 1kts
30-Jul-20 14:46 15.448965 -87.929649 70 87ft 0kts
30-Jul-20 14:47 15.448965 -87.929647 70 87ft 0kts
30-Jul-20 14:48 15.448966 -87.929646 70 87ft 0kts

Navigation Log

Ident Type
Flight plan parsing failed, navigation log unavailable